createdAt,value
2019-03-20T00:01:44.726Z,26.70
2019-03-20T00:10:36.102Z,40.50
2019-03-20T00:13:09.996Z,40.73
2019-03-20T00:15:43.970Z,40.73
2019-03-20T00:18:17.642Z,44.20
2019-03-20T00:20:51.394Z,39.90
2019-03-20T00:23:25.266Z,41.70
2019-03-20T00:25:58.949Z,37.33
2019-03-20T00:28:33.194Z,38.07
2019-03-20T00:31:06.819Z,36.93
2019-03-20T00:33:40.445Z,36.05
2019-03-20T00:36:14.337Z,38.55
2019-03-20T00:38:47.904Z,38.60
2019-03-20T00:41:23.089Z,37.67
2019-03-20T00:43:58.568Z,36.35
2019-03-20T00:46:33.923Z,36.30
2019-03-20T00:55:18.737Z,35.40
2019-03-20T00:57:52.550Z,36.47
2019-03-20T01:00:28.265Z,35.13
2019-03-20T01:03:02.100Z,34.10
2019-03-20T01:05:35.880Z,33.67
2019-03-20T01:08:10.108Z,34.07
2019-03-20T01:10:43.883Z,31.50
2019-03-20T01:13:17.426Z,32.50
2019-03-20T01:16:35.572Z,32.77
2019-03-20T01:18:54.580Z,34.58
2019-03-20T01:21:28.461Z,34.70
2019-03-20T01:24:02.067Z,35.60
2019-03-20T01:26:35.707Z,36.23
2019-03-20T01:29:09.520Z,37.60
2019-03-20T01:31:43.302Z,38.85
2019-03-20T01:34:17.100Z,39.47
2019-03-20T01:36:51.293Z,40.83
2019-03-20T01:42:38.279Z,39.03
2019-03-20T01:45:13.747Z,36.73
2019-03-20T01:47:49.439Z,37.42
2019-03-20T01:50:23.255Z,44.53
2019-03-20T01:53:00.991Z,49.83
2019-03-20T01:55:35.227Z,54.67
2019-03-20T01:58:08.736Z,54.40
2019-03-20T02:00:43.528Z,56.23
2019-03-20T02:03:17.926Z,54.03
2019-03-20T02:05:52.339Z,54.23
2019-03-20T02:12:35.319Z,64.05
2019-03-20T02:15:14.363Z,71.07
2019-03-20T02:17:51.154Z,69.77
2019-03-20T02:20:25.044Z,64.23
2019-03-20T02:22:58.776Z,63.97
2019-03-20T02:25:32.541Z,72.63
2019-03-20T02:28:06.265Z,73.00
2019-03-20T02:30:42.219Z,74.07
2019-03-20T02:33:17.397Z,72.55
2019-03-20T02:35:52.297Z,69.80
2019-03-20T02:38:27.476Z,74.10
2019-03-20T02:41:02.044Z,70.17
2019-03-20T02:43:35.723Z,66.90
2019-03-20T02:46:09.569Z,58.23
2019-03-20T02:48:43.368Z,70.22
2019-03-20T02:51:18.417Z,75.00
2019-03-20T02:53:52.248Z,79.00
2019-03-20T02:56:45.779Z,72.50
2019-03-20T02:59:22.090Z,69.13
2019-03-20T03:01:56.506Z,72.53
2019-03-20T03:04:30.369Z,67.45
2019-03-20T03:07:04.592Z,67.23
2019-03-20T03:09:38.719Z,69.27
2019-03-20T03:12:12.721Z,64.50
2019-03-20T03:14:46.465Z,62.78
2019-03-20T03:17:20.417Z,64.03
2019-03-20T03:19:53.922Z,63.60
2019-03-20T03:22:27.537Z,74.27
2019-03-20T03:25:01.365Z,70.43
2019-03-20T03:27:35.195Z,69.10
2019-03-20T03:30:19.605Z,71.70
2019-03-20T03:32:54.963Z,66.92
2019-03-20T03:35:28.682Z,66.63
2019-03-20T03:38:02.562Z,64.82
2019-03-20T03:40:37.682Z,62.73
2019-03-20T03:43:14.137Z,63.45
2019-03-20T03:46:24.575Z,62.40
2019-03-20T03:48:58.740Z,64.77
2019-03-20T03:51:33.934Z,65.30
2019-03-20T03:54:14.119Z,68.90
2019-03-20T03:56:49.465Z,81.67
2019-03-20T03:59:27.447Z,76.80
2019-03-20T04:02:04.024Z,75.67
2019-03-20T04:04:40.176Z,75.50
2019-03-20T04:07:14.811Z,79.97
2019-03-20T04:09:51.195Z,81.57
2019-03-20T04:12:25.576Z,82.13
2019-03-20T04:15:01.751Z,82.03
2019-03-20T04:17:38.032Z,80.53
2019-03-20T04:20:15.234Z,88.70
2019-03-20T04:22:50.172Z,91.27
2019-03-20T04:25:26.799Z,91.90
2019-03-20T04:28:03.206Z,97.10
2019-03-20T04:30:38.693Z,105.67
2019-03-20T04:33:13.773Z,107.87
2019-03-20T04:35:51.114Z,106.20
2019-03-20T04:38:25.925Z,109.87
2019-03-20T04:41:01.457Z,113.10
2019-03-20T04:43:35.638Z,114.17
2019-03-20T04:46:10.443Z,114.73
2019-03-20T04:48:45.181Z,115.07
2019-03-20T04:51:19.656Z,114.67
2019-03-20T04:53:53.658Z,115.37
2019-03-20T04:56:27.953Z,119.83
2019-03-20T04:59:01.933Z,121.77
2019-03-20T05:01:38.126Z,118.43
2019-03-20T05:04:12.270Z,117.87
2019-03-20T05:06:57.746Z,120.40
2019-03-20T05:09:21.696Z,121.93
2019-03-20T05:11:58.832Z,128.47
2019-03-20T05:14:33.157Z,123.73
2019-03-20T05:17:10.046Z,122.83
2019-03-20T05:19:44.253Z,120.77
2019-03-20T05:22:18.170Z,123.70
2019-03-20T05:24:57.062Z,123.73
2019-03-20T05:27:29.400Z,120.70
2019-03-20T05:30:03.656Z,121.00
2019-03-20T05:32:37.713Z,116.33
2019-03-20T05:35:14.130Z,114.42
2019-03-20T05:37:50.061Z,113.70
2019-03-20T05:40:26.857Z,116.73
2019-03-20T05:43:02.090Z,113.80
2019-03-20T05:45:36.097Z,111.60
2019-03-20T05:48:11.448Z,115.43
2019-03-20T05:50:45.445Z,117.77
2019-03-20T05:53:19.696Z,115.28
2019-03-20T05:55:53.750Z,116.30
2019-03-20T05:58:47.388Z,121.40
2019-03-20T06:01:21.469Z,119.67
2019-03-20T06:03:55.648Z,121.62
2019-03-20T06:06:29.968Z,123.87
2019-03-20T06:09:04.404Z,119.03
2019-03-20T06:11:38.030Z,116.93
2019-03-20T06:14:16.917Z,115.07
2019-03-20T06:16:52.621Z,118.60
2019-03-20T06:19:26.988Z,118.80
2019-03-20T06:22:02.936Z,119.03
2019-03-20T06:24:38.360Z,122.85
2019-03-20T06:27:14.922Z,127.42
2019-03-20T06:29:49.979Z,127.23
2019-03-20T06:32:31.501Z,130.93
2019-03-20T06:35:09.838Z,136.50
2019-03-20T06:37:44.020Z,132.67
2019-03-20T06:40:20.259Z,139.70
2019-03-20T06:42:55.438Z,141.90
2019-03-20T06:45:29.271Z,145.30
2019-03-20T06:48:07.958Z,148.62
2019-03-20T06:50:42.030Z,155.12
2019-03-20T06:53:16.050Z,148.33
2019-03-20T06:55:52.795Z,148.37
2019-03-20T06:58:27.929Z,140.33
2019-03-20T07:01:13.492Z,142.03
2019-03-20T07:04:04.671Z,142.70
2019-03-20T07:06:50.851Z,142.50
2019-03-20T07:09:30.222Z,147.80
2019-03-20T07:12:03.989Z,148.57
2019-03-20T07:14:38.204Z,147.82
2019-03-20T07:17:12.349Z,152.23
2019-03-20T07:19:47.709Z,148.80
2019-03-20T07:22:21.690Z,150.37
2019-03-20T07:24:55.603Z,143.97
2019-03-20T07:27:29.214Z,143.43
2019-03-20T07:30:04.456Z,153.18
2019-03-20T07:32:39.502Z,153.23
2019-03-20T07:35:13.608Z,153.47
2019-03-20T07:37:55.669Z,153.42
2019-03-20T07:40:22.969Z,159.30
2019-03-20T07:43:07.900Z,164.93
2019-03-20T07:45:32.682Z,169.70
2019-03-20T07:48:06.661Z,177.40
2019-03-20T07:50:42.460Z,172.05
2019-03-20T07:53:19.566Z,181.57
2019-03-20T07:55:53.933Z,177.77
2019-03-20T07:58:29.143Z,179.07
2019-03-20T08:01:03.243Z,178.07
2019-03-20T08:03:38.808Z,171.37
2019-03-20T08:06:13.011Z,158.22
2019-03-20T08:08:46.970Z,154.45
2019-03-20T08:11:20.846Z,155.00
2019-03-20T08:13:55.060Z,145.93
2019-03-20T08:16:30.796Z,139.67
2019-03-20T08:19:05.234Z,121.40
2019-03-20T08:21:39.661Z,118.55
2019-03-20T08:24:14.317Z,113.40
2019-03-20T08:26:48.578Z,112.52
2019-03-20T08:29:22.822Z,109.00
2019-03-20T08:31:56.970Z,111.77
2019-03-20T08:34:31.112Z,99.73
2019-03-20T08:37:05.080Z,102.87
2019-03-20T08:39:39.628Z,101.92
2019-03-20T08:42:14.698Z,99.17
2019-03-20T08:44:49.256Z,95.40
2019-03-20T08:47:23.907Z,95.63
2019-03-20T08:49:58.606Z,88.87
2019-03-20T08:52:34.239Z,91.50
2019-03-20T08:55:15.454Z,92.40
2019-03-20T08:57:51.562Z,92.07
2019-03-20T09:00:27.085Z,94.57
2019-03-20T09:03:04.710Z,95.37
2019-03-20T09:05:40.269Z,95.90
2019-03-20T09:08:28.545Z,99.03
2019-03-20T09:10:53.416Z,94.37
2019-03-20T09:13:28.304Z,99.13
2019-03-20T09:16:02.789Z,101.50
2019-03-20T09:18:37.895Z,99.53
2019-03-20T09:21:13.270Z,100.03
2019-03-20T09:23:47.668Z,100.30
2019-03-20T09:26:22.433Z,99.83
2019-03-20T09:28:59.023Z,101.43
2019-03-20T09:31:33.952Z,99.77
2019-03-20T09:34:12.320Z,101.87
2019-03-20T09:36:47.057Z,103.77
2019-03-20T09:39:22.007Z,103.92
2019-03-20T09:41:56.032Z,100.90
2019-03-20T09:44:30.822Z,102.12
2019-03-20T09:47:05.377Z,101.37
2019-03-20T09:49:47.125Z,102.50
2019-03-20T09:52:21.179Z,103.23
2019-03-20T09:54:55.498Z,106.33
2019-03-20T09:57:29.572Z,101.87
2019-03-20T10:00:04.000Z,103.80
2019-03-20T10:02:38.445Z,105.30
2019-03-20T10:05:14.236Z,104.27
2019-03-20T10:07:48.550Z,106.65
2019-03-20T10:10:26.341Z,105.34
2019-03-20T10:13:01.026Z,105.80
2019-03-20T10:15:37.069Z,105.10
2019-03-20T10:18:11.377Z,110.93
2019-03-20T10:20:46.084Z,112.68
2019-03-20T10:23:19.693Z,109.80
2019-03-20T10:25:53.870Z,114.90
2019-03-20T10:28:28.173Z,112.17
2019-03-20T10:31:04.073Z,113.60
2019-03-20T10:33:38.264Z,119.65
2019-03-20T10:36:17.692Z,118.30
2019-03-20T10:38:53.489Z,123.00
2019-03-20T10:41:27.517Z,121.42
2019-03-20T10:44:01.747Z,123.73
2019-03-20T10:46:55.071Z,127.73
2019-03-20T10:49:29.390Z,132.43
2019-03-20T10:52:03.650Z,129.53
2019-03-20T10:54:37.593Z,132.27
2019-03-20T10:57:30.888Z,129.23
2019-03-20T11:00:05.586Z,132.03
2019-03-20T11:02:39.923Z,130.63
2019-03-20T11:05:14.940Z,127.57
2019-03-20T11:07:49.043Z,126.93
2019-03-20T11:10:33.318Z,128.63
2019-03-20T11:13:07.575Z,131.93
2019-03-20T11:15:41.493Z,125.97
2019-03-20T11:18:15.698Z,127.73
2019-03-20T11:20:53.741Z,129.73
2019-03-20T11:23:27.536Z,126.60
2019-03-20T11:26:02.107Z,121.70
2019-03-20T11:28:36.432Z,121.67
2019-03-20T11:31:10.892Z,113.27
2019-03-20T11:33:47.344Z,118.30
2019-03-20T11:36:22.883Z,115.03
2019-03-20T11:38:57.370Z,117.37
2019-03-20T11:41:32.329Z,118.40
2019-03-20T11:44:07.952Z,121.70
2019-03-20T11:46:44.203Z,123.27
2019-03-20T11:49:18.934Z,126.30
2019-03-20T11:51:53.462Z,124.80
2019-03-20T11:54:27.777Z,123.50
2019-03-20T11:57:03.025Z,124.67
2019-03-20T11:59:40.208Z,121.90
2019-03-20T12:02:14.904Z,120.43
2019-03-20T12:04:49.395Z,124.37
2019-03-20T12:07:23.997Z,124.40
2019-03-20T12:09:59.155Z,118.80
2019-03-20T12:12:34.038Z,122.30
2019-03-20T12:15:10.668Z,124.18
2019-03-20T12:17:45.089Z,127.33
2019-03-20T12:20:25.682Z,121.73
2019-03-20T12:23:00.745Z,125.37
2019-03-20T12:25:39.444Z,125.85
2019-03-20T12:28:14.063Z,125.67
2019-03-20T12:30:49.315Z,124.43
2019-03-20T12:33:24.759Z,123.20
2019-03-20T12:35:59.640Z,126.90
2019-03-20T12:38:34.530Z,118.47
2019-03-20T12:41:10.955Z,125.93
2019-03-20T12:43:47.259Z,125.18
2019-03-20T12:46:22.759Z,128.83
2019-03-20T12:48:59.695Z,129.97
2019-03-20T12:51:34.030Z,135.43
2019-03-20T12:54:11.634Z,137.40
2019-03-20T12:56:46.629Z,141.13
2019-03-20T12:59:21.648Z,134.90
2019-03-20T13:01:57.201Z,130.63
2019-03-20T13:04:34.915Z,139.10
2019-03-20T13:07:09.953Z,129.03
2019-03-20T13:09:45.165Z,123.23
2019-03-20T13:12:20.142Z,124.17
2019-03-20T13:14:57.366Z,121.73
2019-03-20T13:17:34.390Z,122.93
2019-03-20T13:20:11.670Z,122.43
2019-03-20T13:22:47.299Z,119.80
2019-03-20T13:25:25.048Z,126.82
2019-03-20T13:28:02.674Z,128.37
2019-03-20T13:30:45.343Z,122.50
2019-03-20T13:33:25.799Z,123.33
2019-03-20T13:35:58.505Z,128.60
2019-03-20T13:38:35.251Z,129.83
2019-03-20T13:41:12.586Z,129.57
2019-03-20T13:43:53.318Z,126.33
2019-03-20T13:46:28.967Z,133.90
2019-03-20T13:49:05.654Z,130.07
2019-03-20T13:51:39.954Z,133.10
2019-03-20T13:54:15.727Z,136.37
2019-03-20T13:56:50.556Z,137.52
2019-03-20T13:59:24.958Z,135.60
2019-03-20T14:01:59.548Z,131.37
2019-03-20T14:04:36.217Z,134.03
2019-03-20T14:07:10.787Z,131.03
2019-03-20T14:09:45.522Z,127.63
2019-03-20T14:12:19.536Z,128.87
2019-03-20T14:14:53.848Z,135.23
2019-03-20T14:17:27.786Z,132.83
2019-03-20T14:20:05.752Z,124.50
2019-03-20T14:22:39.917Z,129.25
2019-03-20T14:25:17.899Z,120.07
2019-03-20T14:27:53.462Z,113.90
2019-03-20T14:30:36.586Z,107.90
2019-03-20T14:33:10.592Z,108.80
2019-03-20T14:35:44.903Z,108.72
2019-03-20T14:38:18.625Z,106.85
2019-03-20T14:41:21.157Z,111.97
2019-03-20T14:43:47.263Z,111.37
2019-03-20T14:46:22.717Z,114.57
2019-03-20T14:48:56.796Z,115.23
2019-03-20T14:51:31.954Z,110.55
2019-03-20T14:54:08.448Z,112.47
2019-03-20T14:56:40.951Z,111.72
2019-03-20T14:59:14.950Z,114.33
2019-03-20T15:01:48.658Z,115.50
2019-03-20T15:04:22.373Z,122.80
2019-03-20T15:06:58.207Z,118.50
2019-03-20T15:09:32.726Z,122.37
2019-03-20T15:12:06.568Z,121.70
2019-03-20T15:14:40.373Z,120.00
2019-03-20T15:17:32.684Z,118.80
2019-03-20T15:20:08.329Z,109.97
2019-03-20T15:22:42.042Z,107.03
2019-03-20T15:25:16.794Z,109.03
2019-03-20T15:27:50.791Z,105.20
2019-03-20T15:30:30.214Z,103.77
2019-03-20T15:33:06.007Z,100.47
2019-03-20T15:35:42.959Z,102.47
2019-03-20T15:38:17.270Z,88.20
2019-03-20T15:40:56.223Z,87.63
2019-03-20T15:43:25.884Z,87.20
2019-03-20T15:46:00.924Z,78.60
2019-03-20T15:48:34.538Z,84.03
2019-03-20T15:51:08.871Z,82.70
2019-03-20T15:53:43.088Z,83.77
2019-03-20T15:56:18.982Z,84.13
2019-03-20T15:58:54.286Z,80.77
2019-03-20T16:01:47.388Z,79.40
2019-03-20T16:04:22.442Z,77.77
2019-03-20T16:06:55.947Z,68.57
2019-03-20T16:09:30.260Z,69.20
2019-03-20T16:12:26.940Z,66.17
2019-03-20T16:14:59.881Z,64.50
2019-03-20T16:17:33.516Z,62.08
2019-03-20T16:20:09.430Z,58.83
2019-03-20T16:22:43.131Z,52.23
2019-03-20T16:25:25.993Z,53.83
2019-03-20T16:27:59.915Z,54.08
2019-03-20T16:30:34.577Z,51.37
2019-03-20T16:33:08.477Z,54.30
2019-03-20T16:35:42.463Z,52.87
2019-03-20T16:38:16.439Z,50.20
2019-03-20T16:40:53.075Z,51.40
2019-03-20T16:43:26.091Z,50.27
2019-03-20T16:45:59.861Z,50.10
2019-03-20T16:48:33.986Z,48.75
2019-03-20T16:51:07.558Z,50.00
2019-03-20T16:53:41.090Z,49.13
2019-03-20T16:56:14.714Z,47.33
2019-03-20T16:58:52.082Z,45.70
2019-03-20T17:01:25.322Z,46.10
2019-03-20T17:03:59.447Z,43.73
2019-03-20T17:06:33.330Z,35.45
2019-03-20T17:09:08.745Z,40.00
2019-03-20T17:11:42.287Z,44.13
2019-03-20T17:14:16.040Z,42.67
2019-03-20T17:16:49.746Z,45.07
2019-03-20T17:19:23.078Z,43.53
2019-03-20T17:21:56.321Z,42.43
2019-03-20T17:24:30.377Z,42.95
2019-03-20T17:27:04.047Z,38.60
2019-03-20T17:29:37.630Z,39.78
2019-03-20T17:32:11.249Z,40.17
2019-03-20T17:34:44.969Z,38.47
2019-03-20T17:37:18.473Z,39.10
2019-03-20T17:39:53.701Z,35.03
2019-03-20T17:42:27.555Z,35.95
2019-03-20T17:45:01.353Z,32.87
2019-03-20T17:47:34.988Z,33.47
2019-03-20T17:50:11.556Z,33.70
2019-03-20T17:52:45.581Z,32.93
2019-03-20T17:55:19.118Z,32.40
2019-03-20T17:57:52.650Z,32.50
2019-03-20T18:00:33.731Z,30.97
2019-03-20T18:03:07.661Z,30.70
2019-03-20T18:05:42.934Z,29.73
2019-03-20T18:08:17.105Z,30.50
2019-03-20T18:10:51.130Z,27.80
2019-03-20T18:13:24.456Z,28.37
2019-03-20T18:15:58.548Z,27.60
2019-03-20T18:18:33.168Z,25.48
2019-03-20T18:21:06.840Z,25.70
2019-03-20T18:23:40.562Z,25.77
2019-03-20T18:26:17.339Z,25.10
2019-03-20T18:28:54.135Z,24.00
2019-03-20T18:31:28.913Z,23.25
2019-03-20T18:34:03.895Z,23.33
2019-03-20T18:36:37.760Z,23.20
2019-03-20T18:39:11.587Z,23.30
2019-03-20T18:41:45.208Z,23.90
2019-03-20T18:44:18.768Z,25.83
2019-03-20T18:46:52.459Z,26.10
2019-03-20T18:49:26.174Z,26.20
2019-03-20T18:51:59.668Z,25.23
2019-03-20T18:54:33.551Z,26.30
2019-03-20T18:57:07.440Z,30.10
2019-03-20T18:59:41.178Z,29.67
2019-03-20T19:02:15.019Z,32.00
2019-03-20T19:04:48.511Z,31.93
2019-03-20T19:07:22.220Z,30.17
2019-03-20T19:09:57.662Z,32.83
2019-03-20T19:12:34.992Z,27.50
2019-03-20T19:15:15.736Z,34.53
2019-03-20T19:17:49.269Z,32.13
2019-03-20T19:20:24.645Z,32.00
2019-03-20T19:22:58.450Z,22.60
2019-03-20T19:25:32.038Z,28.33
2019-03-20T19:28:05.860Z,27.00
2019-03-20T19:30:39.879Z,26.07
2019-03-20T19:33:13.638Z,19.93
2019-03-20T19:35:47.459Z,23.47
2019-03-20T19:38:21.267Z,23.45
2019-03-20T19:40:54.883Z,21.20
2019-03-20T19:43:28.367Z,23.10
2019-03-20T19:46:02.290Z,21.90
2019-03-20T19:48:36.077Z,22.77
2019-03-20T19:51:09.830Z,23.63
2019-03-20T19:53:43.385Z,23.50
2019-03-20T19:56:16.963Z,22.20
2019-03-20T19:58:50.643Z,23.10
2019-03-20T20:01:24.211Z,22.83
2019-03-20T20:03:57.779Z,22.17
2019-03-20T20:06:31.524Z,19.67
2019-03-20T20:09:06.123Z,22.77
2019-03-20T20:11:40.751Z,23.00
2019-03-20T20:14:14.695Z,23.20
2019-03-20T20:16:49.812Z,22.37
2019-03-20T20:19:23.960Z,22.10
2019-03-20T20:21:57.698Z,22.73
2019-03-20T20:24:31.284Z,23.67
2019-03-20T20:27:05.212Z,24.10
2019-03-20T20:29:38.785Z,24.37
2019-03-20T20:32:12.336Z,24.37
2019-03-20T20:34:45.963Z,22.15
2019-03-20T20:37:19.452Z,20.80
2019-03-20T20:39:53.255Z,20.45
2019-03-20T20:42:26.876Z,19.77
2019-03-20T20:45:00.370Z,19.23
2019-03-20T20:47:34.054Z,20.20
2019-03-20T20:50:09.671Z,19.27
2019-03-20T20:52:43.316Z,18.00
2019-03-20T20:55:24.562Z,19.03
2019-03-20T20:57:58.271Z,19.32
2019-03-20T21:00:35.117Z,19.37
2019-03-20T21:03:08.616Z,18.93
2019-03-20T21:05:42.278Z,18.60
2019-03-20T21:08:15.892Z,17.02
2019-03-20T21:10:49.573Z,16.97
2019-03-20T21:13:25.174Z,16.93
2019-03-20T21:15:59.430Z,16.23
2019-03-20T21:18:44.806Z,15.67
2019-03-20T21:21:18.337Z,16.02
2019-03-20T21:24:25.999Z,14.95
2019-03-20T21:27:29.589Z,16.00
2019-03-20T21:30:33.823Z,14.68
2019-03-20T21:33:10.211Z,15.87
2019-03-20T21:36:19.868Z,15.37
2019-03-20T21:38:53.830Z,14.03
2019-03-20T21:41:32.971Z,13.95
2019-03-20T21:44:24.343Z,14.43
2019-03-20T21:47:24.785Z,14.33
2019-03-20T21:49:58.599Z,13.15
2019-03-20T21:52:32.119Z,14.03
2019-03-20T21:55:23.234Z,12.57
2019-03-20T21:58:10.788Z,11.08
2019-03-20T22:01:36.773Z,11.57
2019-03-20T22:04:10.183Z,12.47
2019-03-20T22:07:11.460Z,13.47
2019-03-20T22:09:57.138Z,12.80
2019-03-20T22:13:24.398Z,13.40
2019-03-20T22:16:23.361Z,14.40
2019-03-20T22:19:25.576Z,15.13
2019-03-20T22:22:19.968Z,15.83
2019-03-20T22:25:12.024Z,15.32
2019-03-20T22:28:23.795Z,15.30
2019-03-20T22:30:58.186Z,12.87
2019-03-20T22:34:21.570Z,12.93
2019-03-20T22:36:56.311Z,10.83
2019-03-20T22:40:00.340Z,11.38
2019-03-20T22:42:48.237Z,11.23
2019-03-20T22:45:57.911Z,11.90
2019-03-20T22:48:42.758Z,12.87
2019-03-20T22:51:30.496Z,13.63
2019-03-20T22:54:30.946Z,9.80
2019-03-20T22:57:26.698Z,11.00
2019-03-20T23:00:00.438Z,11.40
2019-03-20T23:02:43.087Z,14.03
2019-03-20T23:05:16.983Z,15.70
2019-03-20T23:07:55.901Z,17.67
2019-03-20T23:10:30.513Z,17.60
2019-03-20T23:13:06.552Z,16.03
2019-03-20T23:15:40.460Z,16.70
2019-03-20T23:18:16.445Z,14.50
2019-03-20T23:20:50.163Z,12.30
2019-03-20T23:23:25.709Z,13.17
2019-03-20T23:25:59.686Z,16.40
2019-03-20T23:28:33.707Z,17.60
2019-03-20T23:31:08.908Z,18.27
2019-03-20T23:33:42.802Z,17.07
2019-03-20T23:36:16.695Z,19.25
2019-03-20T23:38:50.759Z,20.02
2019-03-20T23:41:24.793Z,18.67
2019-03-20T23:43:58.596Z,17.95
2019-03-20T23:46:32.783Z,16.93
2019-03-20T23:49:18.457Z,17.33
2019-03-20T23:51:52.305Z,17.33
2019-03-20T23:54:29.117Z,16.07
2019-03-20T23:57:02.974Z,16.17
2019-03-20T23:59:37.399Z,14.20
